sensor_id;sensor_type;location;lat;lon;timestamp;temperature;humidity
4461;DHT22;2243;48.812;9.232;2023-04-28T00:00:09;12.60;99.90
4461;DHT22;2243;48.812;9.232;2023-04-28T00:02:41;12.60;99.90
4461;DHT22;2243;48.812;9.232;2023-04-28T00:05:12;12.60;99.90
4461;DHT22;2243;48.812;9.232;2023-04-28T00:07:43;12.60;99.90
4461;DHT22;2243;48.812;9.232;2023-04-28T00:10:14;12.60;99.90
4461;DHT22;2243;48.812;9.232;2023-04-28T00:12:45;12.60;99.90
4461;DHT22;2243;48.812;9.232;2023-04-28T00:15:16;12.50;99.90
4461;DHT22;2243;48.812;9.232;2023-04-28T00:17:47;12.60;99.90
4461;DHT22;2243;48.812;9.232;2023-04-28T00:20:18;12.50;99.90
4461;DHT22;2243;48.812;9.232;2023-04-28T00:22:49;12.50;99.90
4461;DHT22;2243;48.812;9.232;2023-04-28T00:25:20;12.50;99.90
4461;DHT22;2243;48.812;9.232;2023-04-28T00:27:51;12.60;99.90
4461;DHT22;2243;48.812;9.232;2023-04-28T00:30:22;12.70;99.90
4461;DHT22;2243;48.812;9.232;2023-04-28T00:32:54;12.70;99.90
4461;DHT22;2243;48.812;9.232;2023-04-28T00:35:26;12.70;99.90
4461;DHT22;2243;48.812;9.232;2023-04-28T00:37:57;12.70;99.90
4461;DHT22;2243;48.812;9.232;2023-04-28T00:40:35;12.70;99.90
4461;DHT22;2243;48.812;9.232;2023-04-28T00:43:07;12.80;99.90
4461;DHT22;2243;48.812;9.232;2023-04-28T00:45:38;12.80;99.90
4461;DHT22;2243;48.812;9.232;2023-04-28T00:48:09;12.80;99.90
4461;DHT22;2243;48.812;9.232;2023-04-28T00:50:41;12.80;99.90
4461;DHT22;2243;48.812;9.232;2023-04-28T00:53:13;12.80;99.90
4461;DHT22;2243;48.812;9.232;2023-04-28T00:55:46;12.60;99.90
4461;DHT22;2243;48.812;9.232;2023-04-28T00:58:18;12.60;99.90
4461;DHT22;2243;48.812;9.232;2023-04-28T01:00:49;12.70;99.90
4461;DHT22;2243;48.812;9.232;2023-04-28T01:03:20;12.70;99.90
4461;DHT22;2243;48.812;9.232;2023-04-28T01:05:51;12.80;99.90
4461;DHT22;2243;48.812;9.232;2023-04-28T01:08:32;12.70;99.90
4461;DHT22;2243;48.812;9.232;2023-04-28T01:11:05;12.60;99.90
4461;DHT22;2243;48.812;9.232;2023-04-28T01:13:36;12.60;99.90
4461;DHT22;2243;48.812;9.232;2023-04-28T01:16:07;12.50;99.90
4461;DHT22;2243;48.812;9.232;2023-04-28T01:18:41;12.50;99.90
4461;DHT22;2243;48.812;9.232;2023-04-28T01:21:29;12.60;99.90
4461;DHT22;2243;48.812;9.232;2023-04-28T01:24:05;12.70;99.90
4461;DHT22;2243;48.812;9.232;2023-04-28T01:26:36;12.70;99.90
4461;DHT22;2243;48.812;9.232;2023-04-28T01:29:07;12.60;99.90
4461;DHT22;2243;48.812;9.232;2023-04-28T01:31:38;12.60;99.90
4461;DHT22;2243;48.812;9.232;2023-04-28T01:34:09;12.70;99.90
4461;DHT22;2243;48.812;9.232;2023-04-28T01:36:39;12.70;99.90
4461;DHT22;2243;48.812;9.232;2023-04-28T01:39:10;12.80;99.90
4461;DHT22;2243;48.812;9.232;2023-04-28T01:41:41;12.80;99.90
4461;DHT22;2243;48.812;9.232;2023-04-28T01:44:12;12.80;99.90
4461;DHT22;2243;48.812;9.232;2023-04-28T01:46:44;12.90;99.90
4461;DHT22;2243;48.812;9.232;2023-04-28T01:49:15;12.90;99.90
4461;DHT22;2243;48.812;9.232;2023-04-28T01:51:46;12.90;99.90
4461;DHT22;2243;48.812;9.232;2023-04-28T01:54:17;13.00;99.90
4461;DHT22;2243;48.812;9.232;2023-04-28T01:56:48;13.00;99.90
4461;DHT22;2243;48.812;9.232;2023-04-28T01:59:19;13.00;99.90
4461;DHT22;2243;48.812;9.232;2023-04-28T02:01:50;13.00;99.90
4461;DHT22;2243;48.812;9.232;2023-04-28T02:04:21;13.00;99.90
4461;DHT22;2243;48.812;9.232;2023-04-28T02:06:52;13.00;99.90
4461;DHT22;2243;48.812;9.232;2023-04-28T02:09:23;13.00;99.90
4461;DHT22;2243;48.812;9.232;2023-04-28T02:11:54;12.90;99.90
4461;DHT22;2243;48.812;9.232;2023-04-28T02:14:25;12.90;99.90
4461;DHT22;2243;48.812;9.232;2023-04-28T02:16:57;12.90;99.90
4461;DHT22;2243;48.812;9.232;2023-04-28T02:19:29;13.10;99.90
4461;DHT22;2243;48.812;9.232;2023-04-28T02:22:00;13.10;99.90
4461;DHT22;2243;48.812;9.232;2023-04-28T02:24:34;13.10;99.90
4461;DHT22;2243;48.812;9.232;2023-04-28T02:27:06;13.20;99.90
4461;DHT22;2243;48.812;9.232;2023-04-28T02:29:37;13.20;99.90
4461;DHT22;2243;48.812;9.232;2023-04-28T02:32:08;13.20;99.90
4461;DHT22;2243;48.812;9.232;2023-04-28T02:34:39;13.20;99.90
4461;DHT22;2243;48.812;9.232;2023-04-28T02:37:11;13.20;99.90
4461;DHT22;2243;48.812;9.232;2023-04-28T02:39:42;13.20;99.90
4461;DHT22;2243;48.812;9.232;2023-04-28T02:42:13;13.20;99.90
4461;DHT22;2243;48.812;9.232;2023-04-28T02:44:44;13.20;99.90
4461;DHT22;2243;48.812;9.232;2023-04-28T02:47:15;13.30;99.90
4461;DHT22;2243;48.812;9.232;2023-04-28T02:49:46;13.20;99.90
4461;DHT22;2243;48.812;9.232;2023-04-28T02:52:17;13.20;99.90
4461;DHT22;2243;48.812;9.232;2023-04-28T02:54:48;13.10;99.90
4461;DHT22;2243;48.812;9.232;2023-04-28T02:57:23;13.10;99.90
4461;DHT22;2243;48.812;9.232;2023-04-28T02:59:54;13.10;99.90
4461;DHT22;2243;48.812;9.232;2023-04-28T03:02:25;13.10;99.90
4461;DHT22;2243;48.812;9.232;2023-04-28T03:04:56;13.10;99.90
4461;DHT22;2243;48.812;9.232;2023-04-28T03:07:27;13.10;99.90
4461;DHT22;2243;48.812;9.232;2023-04-28T03:09:58;13.10;99.90
4461;DHT22;2243;48.812;9.232;2023-04-28T03:12:29;13.10;99.90
4461;DHT22;2243;48.812;9.232;2023-04-28T03:15:00;13.10;99.90
4461;DHT22;2243;48.812;9.232;2023-04-28T03:17:32;13.10;99.90
4461;DHT22;2243;48.812;9.232;2023-04-28T03:20:04;13.10;99.90
4461;DHT22;2243;48.812;9.232;2023-04-28T03:22:36;13.10;99.90
4461;DHT22;2243;48.812;9.232;2023-04-28T03:25:07;13.10;99.90
4461;DHT22;2243;48.812;9.232;2023-04-28T03:27:38;13.00;99.90
4461;DHT22;2243;48.812;9.232;2023-04-28T03:30:09;13.00;99.90
4461;DHT22;2243;48.812;9.232;2023-04-28T03:32:41;13.00;99.90
4461;DHT22;2243;48.812;9.232;2023-04-28T03:35:12;13.00;99.90
4461;DHT22;2243;48.812;9.232;2023-04-28T03:37:43;13.00;99.90
4461;DHT22;2243;48.812;9.232;2023-04-28T03:40:14;12.90;99.90
4461;DHT22;2243;48.812;9.232;2023-04-28T03:42:45;12.90;99.90
4461;DHT22;2243;48.812;9.232;2023-04-28T03:45:16;13.00;99.90
4461;DHT22;2243;48.812;9.232;2023-04-28T03:47:47;12.90;99.90
4461;DHT22;2243;48.812;9.232;2023-04-28T03:50:18;12.80;99.90
4461;DHT22;2243;48.812;9.232;2023-04-28T03:52:49;12.70;99.90
4461;DHT22;2243;48.812;9.232;2023-04-28T03:55:20;12.60;99.90
4461;DHT22;2243;48.812;9.232;2023-04-28T03:57:51;12.70;99.90
4461;DHT22;2243;48.812;9.232;2023-04-28T04:00:22;12.70;99.90
4461;DHT22;2243;48.812;9.232;2023-04-28T04:02:53;12.70;99.90
4461;DHT22;2243;48.812;9.232;2023-04-28T04:05:25;12.60;99.90
4461;DHT22;2243;48.812;9.232;2023-04-28T04:07:56;12.60;99.90
4461;DHT22;2243;48.812;9.232;2023-04-28T04:10:27;12.60;99.90
4461;DHT22;2243;48.812;9.232;2023-04-28T04:12:58;12.60;99.90
4461;DHT22;2243;48.812;9.232;2023-04-28T04:15:29;12.60;99.90
4461;DHT22;2243;48.812;9.232;2023-04-28T04:18:00;12.70;99.90
4461;DHT22;2243;48.812;9.232;2023-04-28T04:20:31;12.70;99.90
4461;DHT22;2243;48.812;9.232;2023-04-28T04:23:02;12.80;99.90
4461;DHT22;2243;48.812;9.232;2023-04-28T04:25:33;12.80;99.90
4461;DHT22;2243;48.812;9.232;2023-04-28T04:28:04;12.90;99.90
4461;DHT22;2243;48.812;9.232;2023-04-28T04:30:36;12.90;99.90
4461;DHT22;2243;48.812;9.232;2023-04-28T04:33:06;12.90;99.90
4461;DHT22;2243;48.812;9.232;2023-04-28T04:35:38;13.00;99.90
4461;DHT22;2243;48.812;9.232;2023-04-28T04:38:09;13.00;99.90
4461;DHT22;2243;48.812;9.232;2023-04-28T04:40:40;13.00;99.90
4461;DHT22;2243;48.812;9.232;2023-04-28T04:43:11;13.00;99.90
4461;DHT22;2243;48.812;9.232;2023-04-28T04:45:42;13.10;99.90
4461;DHT22;2243;48.812;9.232;2023-04-28T04:48:13;13.00;99.90
4461;DHT22;2243;48.812;9.232;2023-04-28T04:50:44;13.00;99.90
4461;DHT22;2243;48.812;9.232;2023-04-28T04:53:15;13.10;99.90
4461;DHT22;2243;48.812;9.232;2023-04-28T04:55:46;13.10;99.90
4461;DHT22;2243;48.812;9.232;2023-04-28T04:58:17;13.10;99.90
4461;DHT22;2243;48.812;9.232;2023-04-28T05:00:48;13.10;99.90
4461;DHT22;2243;48.812;9.232;2023-04-28T05:03:19;13.10;99.90
4461;DHT22;2243;48.812;9.232;2023-04-28T05:05:50;13.00;99.90
4461;DHT22;2243;48.812;9.232;2023-04-28T05:08:21;13.00;99.90
4461;DHT22;2243;48.812;9.232;2023-04-28T05:10:52;13.00;99.90
4461;DHT22;2243;48.812;9.232;2023-04-28T05:13:23;13.10;99.90
4461;DHT22;2243;48.812;9.232;2023-04-28T05:15:54;13.10;99.90
4461;DHT22;2243;48.812;9.232;2023-04-28T05:18:25;13.20;99.90
4461;DHT22;2243;48.812;9.232;2023-04-28T05:20:56;13.20;99.90
4461;DHT22;2243;48.812;9.232;2023-04-28T05:23:27;13.40;99.90
4461;DHT22;2243;48.812;9.232;2023-04-28T05:25:58;13.30;99.90
4461;DHT22;2243;48.812;9.232;2023-04-28T05:28:30;13.30;99.90
4461;DHT22;2243;48.812;9.232;2023-04-28T05:31:01;13.20;99.90
4461;DHT22;2243;48.812;9.232;2023-04-28T05:33:32;13.30;99.90
4461;DHT22;2243;48.812;9.232;2023-04-28T05:36:03;13.30;99.90
4461;DHT22;2243;48.812;9.232;2023-04-28T05:38:34;13.30;99.90
4461;DHT22;2243;48.812;9.232;2023-04-28T05:41:05;13.30;99.90
4461;DHT22;2243;48.812;9.232;2023-04-28T05:43:37;13.30;99.90
4461;DHT22;2243;48.812;9.232;2023-04-28T05:46:08;13.10;99.90
4461;DHT22;2243;48.812;9.232;2023-04-28T05:48:58;13.10;99.90
4461;DHT22;2243;48.812;9.232;2023-04-28T05:51:29;12.90;99.90
4461;DHT22;2243;48.812;9.232;2023-04-28T05:54:00;12.90;99.90
4461;DHT22;2243;48.812;9.232;2023-04-28T05:56:32;13.00;99.90
4461;DHT22;2243;48.812;9.232;2023-04-28T05:59:03;12.80;99.90
4461;DHT22;2243;48.812;9.232;2023-04-28T06:01:34;12.90;99.90
4461;DHT22;2243;48.812;9.232;2023-04-28T06:04:05;13.00;99.90
4461;DHT22;2243;48.812;9.232;2023-04-28T06:06:36;12.90;99.90
4461;DHT22;2243;48.812;9.232;2023-04-28T06:09:07;13.00;99.90
4461;DHT22;2243;48.812;9.232;2023-04-28T06:11:39;12.80;99.90
4461;DHT22;2243;48.812;9.232;2023-04-28T06:14:10;12.80;99.90
4461;DHT22;2243;48.812;9.232;2023-04-28T06:16:43;12.90;99.90
4461;DHT22;2243;48.812;9.232;2023-04-28T06:19:16;12.90;99.90
4461;DHT22;2243;48.812;9.232;2023-04-28T06:21:49;12.80;99.90
4461;DHT22;2243;48.812;9.232;2023-04-28T06:24:22;12.70;99.90
4461;DHT22;2243;48.812;9.232;2023-04-28T06:26:55;12.80;99.90
4461;DHT22;2243;48.812;9.232;2023-04-28T06:29:27;12.70;99.90
4461;DHT22;2243;48.812;9.232;2023-04-28T06:31:58;12.70;99.90
4461;DHT22;2243;48.812;9.232;2023-04-28T06:34:29;12.70;99.90
4461;DHT22;2243;48.812;9.232;2023-04-28T06:37:01;12.60;99.90
4461;DHT22;2243;48.812;9.232;2023-04-28T06:39:32;12.50;99.90
4461;DHT22;2243;48.812;9.232;2023-04-28T06:42:02;12.50;99.90
4461;DHT22;2243;48.812;9.232;2023-04-28T06:44:33;12.50;99.90
4461;DHT22;2243;48.812;9.232;2023-04-28T06:47:06;12.60;99.90
4461;DHT22;2243;48.812;9.232;2023-04-28T06:49:37;12.70;99.90
4461;DHT22;2243;48.812;9.232;2023-04-28T06:52:08;12.60;99.90
4461;DHT22;2243;48.812;9.232;2023-04-28T06:54:39;12.80;99.90
4461;DHT22;2243;48.812;9.232;2023-04-28T06:57:10;12.70;99.90
4461;DHT22;2243;48.812;9.232;2023-04-28T06:59:41;12.80;99.90
4461;DHT22;2243;48.812;9.232;2023-04-28T07:02:13;12.80;99.90
4461;DHT22;2243;48.812;9.232;2023-04-28T07:04:44;12.80;99.90
4461;DHT22;2243;48.812;9.232;2023-04-28T07:07:15;12.80;99.90
4461;DHT22;2243;48.812;9.232;2023-04-28T07:09:46;12.70;99.90
4461;DHT22;2243;48.812;9.232;2023-04-28T07:12:18;12.80;99.90
4461;DHT22;2243;48.812;9.232;2023-04-28T07:14:49;12.70;99.90
4461;DHT22;2243;48.812;9.232;2023-04-28T07:17:20;12.70;99.90
4461;DHT22;2243;48.812;9.232;2023-04-28T07:19:51;12.70;99.90
4461;DHT22;2243;48.812;9.232;2023-04-28T07:22:22;12.70;99.90
4461;DHT22;2243;48.812;9.232;2023-04-28T07:24:53;12.60;99.90
4461;DHT22;2243;48.812;9.232;2023-04-28T07:27:24;12.70;99.90
4461;DHT22;2243;48.812;9.232;2023-04-28T07:29:55;12.80;99.90
4461;DHT22;2243;48.812;9.232;2023-04-28T07:32:26;12.70;99.90
4461;DHT22;2243;48.812;9.232;2023-04-28T07:34:57;12.70;99.90
4461;DHT22;2243;48.812;9.232;2023-04-28T07:37:28;12.70;99.90
4461;DHT22;2243;48.812;9.232;2023-04-28T07:40:00;12.70;99.90
4461;DHT22;2243;48.812;9.232;2023-04-28T07:42:31;12.70;99.90
4461;DHT22;2243;48.812;9.232;2023-04-28T07:45:04;12.80;99.90
4461;DHT22;2243;48.812;9.232;2023-04-28T07:47:36;12.90;99.90
4461;DHT22;2243;48.812;9.232;2023-04-28T07:50:07;12.80;99.90
4461;DHT22;2243;48.812;9.232;2023-04-28T07:52:38;12.80;99.90
4461;DHT22;2243;48.812;9.232;2023-04-28T07:55:09;12.80;99.90
4461;DHT22;2243;48.812;9.232;2023-04-28T07:57:40;12.80;99.90
4461;DHT22;2243;48.812;9.232;2023-04-28T08:00:12;12.90;99.90
4461;DHT22;2243;48.812;9.232;2023-04-28T08:02:43;13.00;99.90
4461;DHT22;2243;48.812;9.232;2023-04-28T08:05:15;13.00;99.90
4461;DHT22;2243;48.812;9.232;2023-04-28T08:07:46;13.00;99.90
4461;DHT22;2243;48.812;9.232;2023-04-28T08:10:19;13.10;99.90
4461;DHT22;2243;48.812;9.232;2023-04-28T08:12:50;13.10;99.90
4461;DHT22;2243;48.812;9.232;2023-04-28T08:15:21;13.20;99.90
4461;DHT22;2243;48.812;9.232;2023-04-28T08:17:52;13.20;99.90
4461;DHT22;2243;48.812;9.232;2023-04-28T08:20:23;13.20;99.90
4461;DHT22;2243;48.812;9.232;2023-04-28T08:22:55;13.20;99.90
4461;DHT22;2243;48.812;9.232;2023-04-28T08:25:26;13.20;99.90
4461;DHT22;2243;48.812;9.232;2023-04-28T08:27:57;13.20;99.90
4461;DHT22;2243;48.812;9.232;2023-04-28T08:30:28;13.10;99.90
4461;DHT22;2243;48.812;9.232;2023-04-28T08:32:59;13.00;99.90
4461;DHT22;2243;48.812;9.232;2023-04-28T08:35:30;13.00;99.90
4461;DHT22;2243;48.812;9.232;2023-04-28T08:38:01;13.00;99.90
4461;DHT22;2243;48.812;9.232;2023-04-28T08:40:32;13.00;99.90
4461;DHT22;2243;48.812;9.232;2023-04-28T08:43:03;13.00;99.90
4461;DHT22;2243;48.812;9.232;2023-04-28T08:45:39;13.10;99.90
4461;DHT22;2243;48.812;9.232;2023-04-28T08:48:20;13.10;99.90
4461;DHT22;2243;48.812;9.232;2023-04-28T08:50:53;13.10;99.90
4461;DHT22;2243;48.812;9.232;2023-04-28T08:53:25;13.20;99.90
4461;DHT22;2243;48.812;9.232;2023-04-28T08:55:57;13.30;99.90
4461;DHT22;2243;48.812;9.232;2023-04-28T08:58:28;13.30;99.90
4461;DHT22;2243;48.812;9.232;2023-04-28T09:00:59;13.40;99.90
4461;DHT22;2243;48.812;9.232;2023-04-28T09:03:34;13.40;99.90
4461;DHT22;2243;48.812;9.232;2023-04-28T09:06:05;13.60;99.90
4461;DHT22;2243;48.812;9.232;2023-04-28T09:08:36;13.70;99.90
4461;DHT22;2243;48.812;9.232;2023-04-28T09:11:08;13.60;99.90
4461;DHT22;2243;48.812;9.232;2023-04-28T09:13:41;13.70;99.90
4461;DHT22;2243;48.812;9.232;2023-04-28T09:16:12;13.80;99.90
4461;DHT22;2243;48.812;9.232;2023-04-28T09:18:55;13.80;99.90
4461;DHT22;2243;48.812;9.232;2023-04-28T09:21:27;13.70;99.90
4461;DHT22;2243;48.812;9.232;2023-04-28T09:23:58;13.80;99.90
4461;DHT22;2243;48.812;9.232;2023-04-28T09:26:47;13.80;99.90
4461;DHT22;2243;48.812;9.232;2023-04-28T09:29:21;13.90;99.90
4461;DHT22;2243;48.812;9.232;2023-04-28T09:31:53;14.00;99.90
4461;DHT22;2243;48.812;9.232;2023-04-28T09:34:24;14.00;99.90
4461;DHT22;2243;48.812;9.232;2023-04-28T09:36:56;14.00;99.90
4461;DHT22;2243;48.812;9.232;2023-04-28T09:39:29;14.00;99.90
4461;DHT22;2243;48.812;9.232;2023-04-28T09:42:00;14.10;99.90
4461;DHT22;2243;48.812;9.232;2023-04-28T09:44:33;14.00;99.90
4461;DHT22;2243;48.812;9.232;2023-04-28T09:47:19;14.00;99.90
4461;DHT22;2243;48.812;9.232;2023-04-28T09:49:58;14.10;99.90
4461;DHT22;2243;48.812;9.232;2023-04-28T09:52:32;14.20;99.90
4461;DHT22;2243;48.812;9.232;2023-04-28T09:55:05;14.30;99.90
4461;DHT22;2243;48.812;9.232;2023-04-28T09:57:38;14.40;99.90
4461;DHT22;2243;48.812;9.232;2023-04-28T10:00:10;14.40;99.90
4461;DHT22;2243;48.812;9.232;2023-04-28T10:02:42;14.50;99.90
4461;DHT22;2243;48.812;9.232;2023-04-28T10:05:15;14.60;99.90
4461;DHT22;2243;48.812;9.232;2023-04-28T10:07:47;14.70;99.90
4461;DHT22;2243;48.812;9.232;2023-04-28T10:10:18;14.70;99.90
4461;DHT22;2243;48.812;9.232;2023-04-28T10:12:50;14.90;99.90
4461;DHT22;2243;48.812;9.232;2023-04-28T10:15:22;15.10;99.90
4461;DHT22;2243;48.812;9.232;2023-04-28T10:17:53;15.30;99.90
4461;DHT22;2243;48.812;9.232;2023-04-28T10:20:26;15.40;99.90
4461;DHT22;2243;48.812;9.232;2023-04-28T10:23:36;15.60;99.90
4461;DHT22;2243;48.812;9.232;2023-04-28T10:26:16;15.70;99.90
4461;DHT22;2243;48.812;9.232;2023-04-28T10:28:50;15.80;99.90
4461;DHT22;2243;48.812;9.232;2023-04-28T10:31:21;16.00;99.90
4461;DHT22;2243;48.812;9.232;2023-04-28T10:33:53;16.00;99.90
4461;DHT22;2243;48.812;9.232;2023-04-28T10:36:56;16.00;99.90
4461;DHT22;2243;48.812;9.232;2023-04-28T10:39:28;16.20;99.90
4461;DHT22;2243;48.812;9.232;2023-04-28T10:42:00;16.40;99.90
4461;DHT22;2243;48.812;9.232;2023-04-28T10:47:03;16.70;99.90
4461;DHT22;2243;48.812;9.232;2023-04-28T10:55:31;17.00;99.90
4461;DHT22;2243;48.812;9.232;2023-04-28T11:00:46;16.90;99.90
4461;DHT22;2243;48.812;9.232;2023-04-28T11:03:38;16.90;99.90
4461;DHT22;2243;48.812;9.232;2023-04-28T11:06:25;16.90;99.90
4461;DHT22;2243;48.812;9.232;2023-04-28T11:12:03;17.00;99.90
4461;DHT22;2243;48.812;9.232;2023-04-28T11:14:37;17.00;99.90
4461;DHT22;2243;48.812;9.232;2023-04-28T11:17:10;17.10;99.90
4461;DHT22;2243;48.812;9.232;2023-04-28T11:19:46;17.20;99.90
4461;DHT22;2243;48.812;9.232;2023-04-28T11:22:22;17.20;99.90
4461;DHT22;2243;48.812;9.232;2023-04-28T11:25:01;17.30;99.90
4461;DHT22;2243;48.812;9.232;2023-04-28T11:27:33;17.00;99.90
4461;DHT22;2243;48.812;9.232;2023-04-28T11:30:19;16.80;99.90
4461;DHT22;2243;48.812;9.232;2023-04-28T11:32:51;16.80;99.90
4461;DHT22;2243;48.812;9.232;2023-04-28T11:35:23;16.80;99.90
4461;DHT22;2243;48.812;9.232;2023-04-28T11:38:02;16.90;99.90
4461;DHT22;2243;48.812;9.232;2023-04-28T11:40:36;17.00;99.90
4461;DHT22;2243;48.812;9.232;2023-04-28T11:43:07;17.10;99.90
4461;DHT22;2243;48.812;9.232;2023-04-28T11:45:38;17.20;99.90
4461;DHT22;2243;48.812;9.232;2023-04-28T11:48:20;17.30;99.90
4461;DHT22;2243;48.812;9.232;2023-04-28T11:50:52;17.30;99.90
4461;DHT22;2243;48.812;9.232;2023-04-28T11:53:42;17.30;99.90
4461;DHT22;2243;48.812;9.232;2023-04-28T11:56:14;17.50;99.90
4461;DHT22;2243;48.812;9.232;2023-04-28T11:58:45;17.50;99.90
4461;DHT22;2243;48.812;9.232;2023-04-28T12:01:15;17.60;99.90
4461;DHT22;2243;48.812;9.232;2023-04-28T12:03:47;17.60;99.90
4461;DHT22;2243;48.812;9.232;2023-04-28T12:06:18;17.80;99.90
4461;DHT22;2243;48.812;9.232;2023-04-28T12:08:49;17.90;99.90
4461;DHT22;2243;48.812;9.232;2023-04-28T12:11:23;17.90;99.90
4461;DHT22;2243;48.812;9.232;2023-04-28T12:14:02;17.90;99.90
4461;DHT22;2243;48.812;9.232;2023-04-28T12:16:41;17.70;99.90
4461;DHT22;2243;48.812;9.232;2023-04-28T12:19:14;17.80;99.90
4461;DHT22;2243;48.812;9.232;2023-04-28T12:22:05;17.90;99.90
4461;DHT22;2243;48.812;9.232;2023-04-28T12:24:37;17.90;99.90
4461;DHT22;2243;48.812;9.232;2023-04-28T12:27:19;17.80;99.90
4461;DHT22;2243;48.812;9.232;2023-04-28T12:29:54;17.70;99.90
4461;DHT22;2243;48.812;9.232;2023-04-28T12:32:41;17.70;99.90
4461;DHT22;2243;48.812;9.232;2023-04-28T12:35:13;17.60;99.90
4461;DHT22;2243;48.812;9.232;2023-04-28T12:37:44;17.50;99.90
4461;DHT22;2243;48.812;9.232;2023-04-28T12:40:15;17.50;99.90
4461;DHT22;2243;48.812;9.232;2023-04-28T12:42:46;17.50;99.90
4461;DHT22;2243;48.812;9.232;2023-04-28T12:45:17;17.50;99.90
4461;DHT22;2243;48.812;9.232;2023-04-28T12:47:48;17.50;99.90
4461;DHT22;2243;48.812;9.232;2023-04-28T12:50:19;17.40;99.90
4461;DHT22;2243;48.812;9.232;2023-04-28T12:52:50;17.20;99.90
4461;DHT22;2243;48.812;9.232;2023-04-28T12:55:21;17.10;99.90
4461;DHT22;2243;48.812;9.232;2023-04-28T12:57:52;17.00;99.90
4461;DHT22;2243;48.812;9.232;2023-04-28T13:00:25;16.80;99.90
4461;DHT22;2243;48.812;9.232;2023-04-28T13:02:56;16.70;99.90
4461;DHT22;2243;48.812;9.232;2023-04-28T13:05:28;16.50;99.90
4461;DHT22;2243;48.812;9.232;2023-04-28T13:07:59;16.50;99.90
4461;DHT22;2243;48.812;9.232;2023-04-28T13:10:30;16.50;99.90
4461;DHT22;2243;48.812;9.232;2023-04-28T13:13:01;16.60;99.90
4461;DHT22;2243;48.812;9.232;2023-04-28T13:15:32;16.70;99.90
4461;DHT22;2243;48.812;9.232;2023-04-28T13:18:03;16.70;99.90
4461;DHT22;2243;48.812;9.232;2023-04-28T13:20:34;16.80;99.90
4461;DHT22;2243;48.812;9.232;2023-04-28T13:23:05;16.90;99.90
4461;DHT22;2243;48.812;9.232;2023-04-28T13:25:36;17.00;99.90
4461;DHT22;2243;48.812;9.232;2023-04-28T13:28:07;17.00;99.90
4461;DHT22;2243;48.812;9.232;2023-04-28T13:30:38;16.80;99.90
4461;DHT22;2243;48.812;9.232;2023-04-28T13:33:09;16.80;99.90
4461;DHT22;2243;48.812;9.232;2023-04-28T13:35:40;16.90;99.90
4461;DHT22;2243;48.812;9.232;2023-04-28T13:38:12;16.90;99.90
4461;DHT22;2243;48.812;9.232;2023-04-28T13:40:42;17.10;99.90
4461;DHT22;2243;48.812;9.232;2023-04-28T13:43:13;17.20;99.90
4461;DHT22;2243;48.812;9.232;2023-04-28T13:45:44;17.20;99.90
4461;DHT22;2243;48.812;9.232;2023-04-28T13:48:16;17.30;99.90
4461;DHT22;2243;48.812;9.232;2023-04-28T13:50:47;17.20;99.90
4461;DHT22;2243;48.812;9.232;2023-04-28T13:53:18;17.10;99.90
4461;DHT22;2243;48.812;9.232;2023-04-28T13:55:49;17.00;99.90
4461;DHT22;2243;48.812;9.232;2023-04-28T13:58:24;17.10;99.90
4461;DHT22;2243;48.812;9.232;2023-04-28T14:00:58;17.10;99.90
4461;DHT22;2243;48.812;9.232;2023-04-28T14:03:29;17.00;99.90
4461;DHT22;2243;48.812;9.232;2023-04-28T14:06:01;16.90;99.90
4461;DHT22;2243;48.812;9.232;2023-04-28T14:08:32;16.80;99.90
4461;DHT22;2243;48.812;9.232;2023-04-28T14:11:03;16.80;99.90
4461;DHT22;2243;48.812;9.232;2023-04-28T14:13:35;16.80;99.90
4461;DHT22;2243;48.812;9.232;2023-04-28T14:16:06;16.80;99.90
4461;DHT22;2243;48.812;9.232;2023-04-28T14:18:37;16.80;99.90
4461;DHT22;2243;48.812;9.232;2023-04-28T14:21:08;16.80;99.90
4461;DHT22;2243;48.812;9.232;2023-04-28T14:23:39;16.90;99.90
4461;DHT22;2243;48.812;9.232;2023-04-28T14:26:10;16.90;99.90
4461;DHT22;2243;48.812;9.232;2023-04-28T14:28:41;17.00;99.90
4461;DHT22;2243;48.812;9.232;2023-04-28T14:31:12;17.00;99.90
4461;DHT22;2243;48.812;9.232;2023-04-28T14:33:43;17.00;99.90
4461;DHT22;2243;48.812;9.232;2023-04-28T14:36:14;16.90;99.90
4461;DHT22;2243;48.812;9.232;2023-04-28T14:38:45;16.80;99.90
4461;DHT22;2243;48.812;9.232;2023-04-28T14:41:16;16.80;99.90
4461;DHT22;2243;48.812;9.232;2023-04-28T14:43:47;17.10;99.90
4461;DHT22;2243;48.812;9.232;2023-04-28T14:46:18;16.90;99.90
4461;DHT22;2243;48.812;9.232;2023-04-28T14:48:52;16.90;99.90
4461;DHT22;2243;48.812;9.232;2023-04-28T14:51:23;17.10;99.90
4461;DHT22;2243;48.812;9.232;2023-04-28T14:53:55;17.10;99.90
4461;DHT22;2243;48.812;9.232;2023-04-28T14:56:26;17.20;99.90
4461;DHT22;2243;48.812;9.232;2023-04-28T14:58:57;17.40;99.90
4461;DHT22;2243;48.812;9.232;2023-04-28T15:01:29;17.40;99.90
4461;DHT22;2243;48.812;9.232;2023-04-28T15:04:00;17.40;99.90
4461;DHT22;2243;48.812;9.232;2023-04-28T15:06:31;17.60;99.90
4461;DHT22;2243;48.812;9.232;2023-04-28T15:09:03;17.50;99.90
4461;DHT22;2243;48.812;9.232;2023-04-28T15:11:34;17.50;99.90
4461;DHT22;2243;48.812;9.232;2023-04-28T15:14:06;17.50;99.90
4461;DHT22;2243;48.812;9.232;2023-04-28T15:16:36;17.50;99.90
4461;DHT22;2243;48.812;9.232;2023-04-28T15:19:07;17.40;99.90
4461;DHT22;2243;48.812;9.232;2023-04-28T15:21:39;17.40;99.90
4461;DHT22;2243;48.812;9.232;2023-04-28T15:24:10;17.40;99.90
4461;DHT22;2243;48.812;9.232;2023-04-28T15:26:41;17.40;99.90
4461;DHT22;2243;48.812;9.232;2023-04-28T15:29:12;17.50;99.90
4461;DHT22;2243;48.812;9.232;2023-04-28T15:31:43;17.50;99.90
4461;DHT22;2243;48.812;9.232;2023-04-28T15:34:14;17.50;99.90
4461;DHT22;2243;48.812;9.232;2023-04-28T15:36:45;17.60;99.90
4461;DHT22;2243;48.812;9.232;2023-04-28T15:39:16;17.60;99.90
4461;DHT22;2243;48.812;9.232;2023-04-28T15:41:47;17.50;99.90
4461;DHT22;2243;48.812;9.232;2023-04-28T15:44:18;17.40;99.90
4461;DHT22;2243;48.812;9.232;2023-04-28T15:46:49;17.30;99.90
4461;DHT22;2243;48.812;9.232;2023-04-28T15:49:22;17.10;99.90
4461;DHT22;2243;48.812;9.232;2023-04-28T15:51:52;17.00;99.90
4461;DHT22;2243;48.812;9.232;2023-04-28T15:54:23;16.80;99.90
4461;DHT22;2243;48.812;9.232;2023-04-28T15:56:54;16.80;99.90
4461;DHT22;2243;48.812;9.232;2023-04-28T15:59:25;16.80;99.90
4461;DHT22;2243;48.812;9.232;2023-04-28T16:01:56;16.80;99.90
4461;DHT22;2243;48.812;9.232;2023-04-28T16:04:27;16.80;99.90
4461;DHT22;2243;48.812;9.232;2023-04-28T16:06:58;16.80;99.90
4461;DHT22;2243;48.812;9.232;2023-04-28T16:09:32;16.80;99.90
4461;DHT22;2243;48.812;9.232;2023-04-28T16:12:03;16.90;99.90
4461;DHT22;2243;48.812;9.232;2023-04-28T16:14:34;16.90;99.90
4461;DHT22;2243;48.812;9.232;2023-04-28T16:17:06;16.90;99.90
4461;DHT22;2243;48.812;9.232;2023-04-28T16:19:38;16.80;99.90
4461;DHT22;2243;48.812;9.232;2023-04-28T16:22:09;16.80;99.90
4461;DHT22;2243;48.812;9.232;2023-04-28T16:24:40;16.80;99.90
4461;DHT22;2243;48.812;9.232;2023-04-28T16:27:14;16.80;99.90
4461;DHT22;2243;48.812;9.232;2023-04-28T16:29:45;16.70;99.90
4461;DHT22;2243;48.812;9.232;2023-04-28T16:32:16;16.70;99.90
4461;DHT22;2243;48.812;9.232;2023-04-28T16:34:47;16.70;99.90
4461;DHT22;2243;48.812;9.232;2023-04-28T16:37:19;16.50;99.90
4461;DHT22;2243;48.812;9.232;2023-04-28T16:39:50;16.30;99.90
4461;DHT22;2243;48.812;9.232;2023-04-28T16:42:21;16.10;99.90
4461;DHT22;2243;48.812;9.232;2023-04-28T16:44:52;16.00;99.90
4461;DHT22;2243;48.812;9.232;2023-04-28T16:47:23;15.80;99.90